Berit — 5BLR3 — position and weather

sailwx.info

Track history (hours):
 
Tides and Currents Weather Stations Pressure Air Temp Water Temp Dewpoint Dewpoint Depression Visibility Wind Speed Wind Dir Waves Ship Positions

Berit

Last reported at 2018-Jul-21 15:30 UTC. Time now 2018-Jul-21 15:34 UTC.
Position N 38°55' W 009°43'.

Length 135 m; draft 6.9 m.

Type: Cargo ship. MMSI: 209176832.

Date/timePositionNaut miles runAvg speedWind from/ knotsBaromVisibWave heightAir tempDewpointWater temp
2018-Jul-21 15:30N 38°55' W 009°43'714.8
2018-Jul-21 15:00N 38°48' W 009°42'714.6
2018-Jul-21 14:30N 38°41' W 009°42'713.9
2018-Jul-21 14:00N 38°35' W 009°36'714.4
2018-Jul-21 13:30N 38°30' W 009°30'714.5
2018-Jul-21 13:00N 38°24' W 009°24'713.5
2018-Jul-21 12:30N 38°21' W 009°17'815.9
2018-Jul-21 12:00N 38°23' W 009°07'816.7
2018-Jul-21 11:30N 38°27' W 008°58'510.7
2018-Jul-21 11:01N 38°31' W 008°53'0 0.4
2018-Jul-21 10:22N 38°31' W 008°52'0 0.0
2018-Jul-21 09:58N 38°31' W 008°52'0 0.0
2018-Jul-21 09:28N 38°31' W 008°52'0 0.0
2018-Jul-21 08:58N 38°31' W 008°52'0 0.0
2018-Jul-21 08:28N 38°31' W 008°52'0 0.0
2018-Jul-21 07:58N 38°31' W 008°52'0 0.0
2018-Jul-21 07:28N 38°31' W 008°52'0 0.0
2018-Jul-21 06:58N 38°31' W 008°52'1 2.8
2018-Jul-21 06:30N 38°31' W 008°54'612.1
2018-Jul-21 06:00N 38°26' W 008°59'3 6.4
2018-Jul-21 05:31N 38°23' W 009°01'4 7.8
2018-Jul-21 05:01N 38°20' W 009°01'4 8.9
2018-Jul-21 04:30N 38°15' W 008°60'4 7.9
2018-Jul-21 04:00N 38°11' W 008°59'4 7.3
2018-Jul-21 03:30N 38°08' W 008°59'5 9.3
2018-Jul-21 03:01N 38°03' W 008°58'917.1
2018-Jul-21 02:31N 37°55' W 008°54'2 4.3
2018-Jul-21 01:57N 37°56' W 008°51'0 0.0
2018-Jul-21 01:27N 37°56' W 008°51'0 0.0
2018-Jul-21 00:54N 37°56' W 008°51'0 0.0
2018-Jul-21 00:30N 37°56' W 008°51'0 0.0
2018-Jul-21 00:00N 37°56' W 008°51'0 0.0
2018-Jul-20 23:30N 37°56' W 008°51'0 0.0
2018-Jul-20 23:00N 37°56' W 008°51'0 0.0
2018-Jul-20 22:24N 37°56' W 008°51'0 0.0
2018-Jul-20 21:54N 37°56' W 008°51'0 0.0
2018-Jul-20 21:30N 37°56' W 008°51'0 0.0
2018-Jul-20 20:54N 37°56' W 008°51'0 0.0
2018-Jul-20 20:27N 37°56' W 008°51'0 0.0
2018-Jul-20 19:57N 37°56' W 008°51'0 0.0
2018-Jul-20 19:30N 37°56' W 008°51'1 1.9
2018-Jul-20 19:00N 37°55' W 008°50'3 6.3
2018-Jul-20 18:30N 37°53' W 008°53'612.6
2018-Jul-20 18:00N 37°50' W 009°00'1 1.9
2018-Jul-20 17:30N 37°51' W 009°01'1 2.3
2018-Jul-20 17:00N 37°52' W 009°01'1 2.2
2018-Jul-20 16:30N 37°53' W 009°01'3 5.5
2018-Jul-20 16:00N 37°51' W 008°59'510.5
2018-Jul-20 15:30N 37°49' W 008°53'1 1.9
2018-Jul-20 15:00N 37°50' W 008°52'1 1.7
2018-Jul-20 14:30N 37°50' W 008°53'1 1.6
2018-Jul-20 14:00N 37°51' W 008°54'1 1.5
2018-Jul-20 13:30N 37°51' W 008°55'1 1.4
2018-Jul-20 13:00N 37°51' W 008°56'1 1.4
2018-Jul-20 12:30N 37°52' W 008°56'1 1.4
2018-Jul-20 12:00N 37°52' W 008°57'2 4.2
2018-Jul-20 11:30N 37°52' W 008°55'0 0.9
2018-Jul-20 11:00N 37°52' W 008°55'1 1.1
2018-Jul-20 10:30N 37°53' W 008°55'1 2.1
2018-Jul-20 10:00N 37°53' W 008°54'1 2.5
2018-Jul-20 09:30N 37°54' W 008°54'2 3.8
2018-Jul-20 09:00N 37°56' W 008°55'3 5.3
2018-Jul-20 08:30N 37°58' W 008°57'5 9.4
2018-Jul-20 08:00N 38°01' W 009°01'917.4
2018-Jul-20 07:30N 38°08' W 009°08'917.5
2018-Jul-20 07:00N 38°15' W 009°16'918.0
2018-Jul-20 06:30N 38°21' W 009°23'918.4
2018-Jul-20 06:00N 38°28' W 009°31'918.3
2018-Jul-20 05:30N 38°35' W 009°39'917.2
2018-Jul-20 05:00N 38°43' W 009°43'918.1
2018-Jul-20 04:30N 38°52' W 009°44'918.0
2018-Jul-20 04:00N 39°01' W 009°44'918.2
2018-Jul-20 03:30N 39°10' W 009°44'918.2
2018-Jul-20 03:00N 39°19' W 009°44'918.3
2018-Jul-20 02:30N 39°28' W 009°43'1417.6
2018-Jul-20 01:43N 39°41' W 009°36'718.0
2018-Jul-20 01:18N 39°48' W 009°33'818.2
2018-Jul-20 00:51N 39°55' W 009°28'7318.0
2018-Jul-19 20:49N 41°02' W 008°49'517.6
2018-Jul-19 20:30N 41°06' W 008°45'510.8
2018-Jul-19 20:00N 41°11' W 008°42'1 1.8
2018-Jul-19 19:28N 41°12' W 008°41'0 0.0
2018-Jul-19 18:40N 41°12' W 008°41'0 0.0
2018-Jul-19 18:28N 41°12' W 008°41'0 0.0
2018-Jul-19 17:46N 41°12' W 008°41'0 0.0
2018-Jul-19 17:25N 41°12' W 008°41'0 0.0
2018-Jul-19 16:58N 41°12' W 008°41'0 0.0
2018-Jul-19 16:22N 41°12' W 008°41'0 0.0
2018-Jul-19 15:52N 41°12' W 008°41'0 0.0
2018-Jul-19 15:28N 41°12' W 008°41'0 0.0
2018-Jul-19 14:58N 41°12' W 008°41'0 0.0
2018-Jul-19 13:46N 41°12' W 008°41'0 0.0
2018-Jul-19 13:28N 41°12' W 008°41'0 0.0
2018-Jul-19 12:58N 41°12' W 008°41'0 0.0
2018-Jul-19 12:22N 41°12' W 008°41'0 0.0
2018-Jul-19 11:55N 41°12' W 008°41'0 0.0
2018-Jul-19 11:22N 41°12' W 008°41'0 0.0
2018-Jul-19 10:58N 41°12' W 008°41'0 0.0
2018-Jul-19 10:28N 41°12' W 008°41'0 0.0
2018-Jul-19 09:58N 41°12' W 008°41'0 0.0
2018-Jul-19 09:16N 41°12' W 008°41'0 0.0
2018-Jul-19 08:58N 41°12' W 008°41'0 0.0
2018-Jul-19 08:25N 41°12' W 008°41'0 0.0
2018-Jul-19 07:55N 41°12' W 008°41'0 0.0
2018-Jul-19 07:22N 41°12' W 008°41'0 0.0
2018-Jul-19 06:55N 41°12' W 008°41'0 0.0
2018-Jul-19 06:28N 41°12' W 008°41'0 0.0
2018-Jul-19 05:52N 41°12' W 008°41'0 0.0
2018-Jul-19 05:16N 41°12' W 008°41'0 0.0
2018-Jul-19 05:01N 41°12' W 008°41'0 0.0
2018-Jul-19 04:27N 41°12' W 008°41'0 0.0
2018-Jul-19 03:57N 41°12' W 008°41'0 0.0
2018-Jul-19 03:21N 41°12' W 008°41'0 0.0
2018-Jul-19 02:54N 41°12' W 008°41'0 0.0
2018-Jul-19 02:27N 41°12' W 008°41'0 0.0
2018-Jul-19 01:45N 41°12' W 008°41'0 0.0
2018-Jul-19 01:30N 41°12' W 008°41'0 0.0
2018-Jul-19 00:57N 41°12' W 008°41'0 0.0
2018-Jul-19 00:30N 41°12' W 008°41'0 0.0
2018-Jul-18 23:35N 41°12' W 008°41'0 0.2
2018-Jul-18 23:29N 41°12' W 008°41'1 2.1
2018-Jul-18 23:01N 41°11' W 008°42'3 5.3
2018-Jul-18 22:29N 41°09' W 008°44'2 4.6
2018-Jul-18 21:58N 41°11' W 008°46'4815.7
2018-Jul-18 18:54N 41°58' W 008°60'616.0
2018-Jul-18 18:30N 42°04' W 008°59'713.7
2018-Jul-18 18:00N 42°10' W 008°54'713.7
2018-Jul-18 17:31N 42°14' W 008°46'2 0.4
2018-Jul-18 11:21N 42°15' W 008°43'8 9.1
2018-Jul-18 10:30N 42°15' W 008°53'611.2
2018-Jul-18 10:00N 42°18' W 008°59'713.1
2018-Jul-18 09:26N 42°22' W 009°08'36112.9
2018-Jul-17 05:23N 48°05' W 006°27'14915.4
2018-Jul-16 19:42N 49°44' W 003°37'314.6
2018-Jul-16 19:30N 49°46' W 003°33'714.9
2018-Jul-16 19:00N 49°50' W 003°23'815.4
2018-Jul-16 18:30N 49°53' W 003°13'816.2
2018-Jul-16 18:01N 49°57' W 003°01'917.2
2018-Jul-16 17:30N 50°00' W 002°49'1018.5
2018-Jul-16 16:59N 50°03' W 002°35'919.2
2018-Jul-16 16:30N 50°06' W 002°21'1019.9
2018-Jul-16 16:00N 50°09' W 002°06'1120.2
2018-Jul-16 15:28N 50°12' W 001°50'1019.8
2018-Jul-16 14:58N 50°14' W 001°35'918.9
2018-Jul-16 14:30N 50°16' W 001°22'917.9
2018-Jul-16 14:00N 50°19' W 001°09'816.9
2018-Jul-16 13:30N 50°22' W 000°56'815.5
2018-Jul-16 13:00N 50°24' W 000°44'714.5
2018-Jul-16 12:30N 50°25' W 000°33'714.4
2018-Jul-16 12:00N 50°27' W 000°22'714.4
2018-Jul-16 11:30N 50°29' W 000°11'714.4
2018-Jul-16 11:00N 50°30' W 000°00'714.4
2018-Jul-16 10:31N 50°32' E 000°11'714.8
2018-Jul-16 10:01N 50°34' E 000°22'815.7
2018-Jul-16 09:30N 50°37' E 000°34'917.2
2018-Jul-16 09:01N 50°41' E 000°45'918.4
2018-Jul-16 08:30N 50°46' E 000°58'918.8
2018-Jul-16 08:01N 50°51' E 001°10'918.9
2018-Jul-16 07:31N 50°57' E 001°21'918.7
2018-Jul-16 07:00N 51°05' E 001°31'917.4
2018-Jul-16 06:30N 51°11' E 001°41'816.5
2018-Jul-16 06:00N 51°17' E 001°50'815.7
2018-Jul-16 05:30N 51°23' E 001°57'714.0
2018-Jul-16 05:00N 51°23' E 002°09'815.6
2018-Jul-16 04:30N 51°21' E 002°21'815.1
2018-Jul-16 04:00N 51°23' E 002°33'715.3
2018-Jul-16 03:30N 51°22' E 002°45'713.6
2018-Jul-16 03:00N 51°23' E 002°56'714.8
2018-Jul-16 02:30N 51°24' E 003°07'714.2
2018-Jul-16 02:01N 51°25' E 003°19'713.3
2018-Jul-16 01:31N 51°25' E 003°29'510.4
2018-Jul-16 01:00N 51°26' E 003°37'611.7
2018-Jul-16 00:31N 51°22' E 003°44'713.4
2018-Jul-16 00:00N 51°22' E 003°55'510.0
2018-Jul-15 23:31N 51°25' E 004°02'612.0
2018-Jul-15 23:01N 51°24' E 004°12'612.5
2018-Jul-15 22:30N 51°18' E 004°16'0 0.6
2018-Jul-15 21:59N 51°18' E 004°16'0 0.0
2018-Jul-15 21:29N 51°18' E 004°16'0 0.0
2018-Jul-15 20:59N 51°18' E 004°16'0 0.0
2018-Jul-15 20:29N 51°18' E 004°16'0 0.0
2018-Jul-15 19:59N 51°18' E 004°16'0 0.0
2018-Jul-15 19:29N 51°18' E 004°16'0 0.0
2018-Jul-15 18:59N 51°18' E 004°16'0 0.0
2018-Jul-15 18:29N 51°18' E 004°16'0 0.0
2018-Jul-15 17:59N 51°18' E 004°16'0 0.0
2018-Jul-15 17:29N 51°18' E 004°16'0 0.0
2018-Jul-15 16:56N 51°18' E 004°16'0 0.0
2018-Jul-15 16:29N 51°18' E 004°16'0 0.0
2018-Jul-15 15:59N 51°18' E 004°16'0 0.0
2018-Jul-15 15:29N 51°18' E 004°16'0 0.0
2018-Jul-15 14:59N 51°18' E 004°16'0 0.0
2018-Jul-15 14:29N 51°18' E 004°16'0 0.0
2018-Jul-15 13:59N 51°18' E 004°16'0 0.0
2018-Jul-15 13:29N 51°18' E 004°16'0 0.0
2018-Jul-15 12:59N 51°18' E 004°16'0 0.0
2018-Jul-15 12:29N 51°18' E 004°16'0 0.0
2018-Jul-15 11:59N 51°18' E 004°16'0 0.0
2018-Jul-15 11:29N 51°18' E 004°16'1 1.4
2018-Jul-15 11:00N 51°19' E 004°16'611.9
2018-Jul-15 10:30N 51°24' E 004°11'611.4
2018-Jul-15 10:01N 51°25' E 004°02'5 9.0
2018-Jul-15 09:30N 51°22' E 003°56'713.6
2018-Jul-15 09:00N 51°22' E 003°45'612.5
2018-Jul-15 08:30N 51°26' E 003°37'3 6.4
2018-Jul-15 08:01N 51°25' E 003°32'1 1.9
2018-Jul-15 07:30N 51°26' E 003°31'3 5.7
2018-Jul-15 07:00N 51°28' E 003°30'510.5
2018-Jul-15 06:30N 51°32' E 003°25'611.2
2018-Jul-15 06:00N 51°37' E 003°21'611.1
2018-Jul-15 05:30N 51°42' E 003°16'3 6.1
2018-Jul-15 05:00N 51°45' E 003°15'3 6.1
2018-Jul-15 04:30N 51°46' E 003°19'0 0.1
2018-Jul-15 04:00N 51°46' E 003°20'0 0.0
2018-Jul-15 03:31N 51°46' E 003°20'0 0.0
2018-Jul-15 03:00N 51°46' E 003°20'0 0.0
2018-Jul-15 02:30N 51°46' E 003°20'0 0.0
2018-Jul-15 02:00N 51°46' E 003°20'0 0.0
2018-Jul-15 01:30N 51°46' E 003°20'0 0.4
2018-Jul-15 01:00N 51°46' E 003°19'0 0.1
2018-Jul-15 00:30N 51°46' E 003°19'0 0.1
2018-Jul-15 00:00N 51°46' E 003°19'0 0.0
2018-Jul-14 23:30N 51°46' E 003°19'0 0.0
2018-Jul-14 23:00N 51°46' E 003°19'0 0.0
2018-Jul-14 22:30N 51°46' E 003°19'0 0.0
2018-Jul-14 22:00N 51°46' E 003°19'0 0.0
2018-Jul-14 21:30N 51°46' E 003°19'0 0.0
2018-Jul-14 21:00N 51°46' E 003°19'0 0.0
2018-Jul-14 20:30N 51°46' E 003°19'0 0.0
2018-Jul-14 20:00N 51°46' E 003°19'0 0.0
2018-Jul-14 19:30N 51°46' E 003°19'0 0.7
2018-Jul-14 19:00N 51°46' E 003°19'612.2
2018-Jul-14 18:30N 51°52' E 003°17'815.4
2018-Jul-14 18:00N 51°59' E 003°21'815.1
2018-Jul-14 17:30N 52°03' E 003°31'816.7
2018-Jul-14 17:00N 52°03' E 003°45'613.0
2018-Jul-14 16:30N 52°02' E 003°55'714.0
2018-Jul-14 16:00N 51°59' E 004°06'611.5
2018-Jul-14 15:31N 51°56' E 004°13'510.2
2018-Jul-14 15:00N 51°54' E 004°21'3 6.7
2018-Jul-14 14:30N 51°54' E 004°26'0 0.1
2018-Jul-14 13:29N 51°54' E 004°26'0 0.0
2018-Jul-14 12:59N 51°54' E 004°26'0 0.0
2018-Jul-14 12:29N 51°54' E 004°26'0 0.0
2018-Jul-14 11:59N 51°54' E 004°26'0 0.0
2018-Jul-14 11:29N 51°54' E 004°26'0 0.0
2018-Jul-14 10:59N 51°54' E 004°26'0 0.0
2018-Jul-14 10:29N 51°54' E 004°26'0 0.0
2018-Jul-14 09:59N 51°54' E 004°26'0 0.0
2018-Jul-14 09:28N 51°54' E 004°26'0 0.0
2018-Jul-14 08:58N 51°54' E 004°26'0 0.0
2018-Jul-14 08:28N 51°54' E 004°26'0 0.0
2018-Jul-14 07:58N 51°54' E 004°26'0 0.0
2018-Jul-14 07:28N 51°54' E 004°26'0 0.0
2018-Jul-14 06:58N 51°54' E 004°26'0 0.0
2018-Jul-14 06:28N 51°54' E 004°26'0 1.0
2018-Jul-14 06:00N 51°54' E 004°26'4 8.7
2018-Jul-14 05:30N 51°54' E 004°19'611.8
2018-Jul-14 05:00N 51°57' E 004°11'4 7.4
2018-Jul-14 04:30N 51°58' E 004°05'1 1.5
2018-Jul-14 03:59N 51°58' E 004°04'0 0.0
2018-Jul-14 03:25N 51°58' E 004°04'0 0.0
2018-Jul-14 02:58N 51°58' E 004°04'0 0.0
2018-Jul-14 02:28N 51°58' E 004°04'0 0.0
2018-Jul-14 01:58N 51°58' E 004°04'0 0.0
2018-Jul-14 01:28N 51°58' E 004°04'0 0.0
2018-Jul-14 00:58N 51°58' E 004°04'0 0.0
2018-Jul-14 00:28N 51°58' E 004°04'0 0.0
2018-Jul-13 23:59N 51°58' E 004°04'1 1.7
2018-Jul-13 23:30N 51°58' E 004°05'611.3
2018-Jul-13 23:01N 51°60' E 003°56'612.3
2018-Jul-13 22:30N 51°58' E 003°47'3 5.6
2018-Jul-13 21:59N 51°56' E 003°44'0 0.0
2018-Jul-13 21:22N 51°56' E 003°44'0 0.0
2018-Jul-13 20:55N 51°56' E 003°44'0 0.0
2018-Jul-13 20:25N 51°56' E 003°44'0 0.0
2018-Jul-13 19:58N 51°56' E 003°44'0 0.0
2018-Jul-13 19:28N 51°56' E 003°44'0 0.1
2018-Jul-13 18:58N 51°56' E 003°44'0 0.0
2018-Jul-13 18:22N 51°56' E 003°44'0 0.0
2018-Jul-13 17:55N 51°56' E 003°44'0 0.1
2018-Jul-13 17:28N 51°56' E 003°44'0 0.2
2018-Jul-13 16:58N 51°56' E 003°44'0 0.1
2018-Jul-13 16:28N 51°56' E 003°44'0 0.1
2018-Jul-13 15:58N 51°56' E 003°44'0 0.0
2018-Jul-13 15:28N 51°56' E 003°44'0 0.0
2018-Jul-13 14:58N 51°56' E 003°44'1 1.2
2018-Jul-13 14:00N 51°56' E 003°42'4 8.2
2018-Jul-13 13:30N 51°57' E 003°35'4 8.0
2018-Jul-13 13:00N 51°56' E 003°29'4 7.6
2018-Jul-13 12:30N 51°55' E 003°23'4 7.3
2018-Jul-13 12:00N 51°54' E 003°17'4 7.5
2018-Jul-13 11:30N 51°52' E 003°12'3 7.1
2018-Jul-13 11:01N 51°51' E 003°06'4 7.0
2018-Jul-13 10:30N 51°50' E 003°01'3 6.6
2018-Jul-13 10:00N 51°50' E 002°56'3 6.3
2018-Jul-13 09:29N 51°49' E 002°51'3 6.1
2018-Jul-13 09:00N 51°48' E 002°46'3 6.1
2018-Jul-13 08:30N 51°47' E 002°41'4 8.8
2018-Jul-13 08:00N 51°44' E 002°35'4 8.7
2018-Jul-13 07:30N 51°41' E 002°30'510.4
2018-Jul-13 07:00N 51°38' E 002°25'715.0
2018-Jul-13 06:31N 51°32' E 002°17'4 8.5
2018-Jul-13 06:01N 51°28' E 002°13'4 8.6
2018-Jul-13 05:30N 51°24' E 002°11'4 8.7
2018-Jul-13 05:00N 51°20' E 002°08'5 9.2
2018-Jul-13 04:30N 51°16' E 002°06'4 8.4
2018-Jul-13 04:01N 51°12' E 002°02'5 9.5
2018-Jul-13 03:31N 51°10' E 001°55'5 9.7
2018-Jul-13 03:01N 51°08' E 001°49'510.2
2018-Jul-13 02:30N 51°04' E 001°43'510.5
2018-Jul-13 02:00N 51°00' E 001°37'610.9
2018-Jul-13 01:30N 50°56' E 001°31'511.0
2018-Jul-13 01:01N 50°51' E 001°28'611.2
2018-Jul-13 00:31N 50°46' E 001°25'511.0
2018-Jul-13 00:01N 50°42' E 001°20'510.7
2018-Jul-12 23:31N 50°37' E 001°15'710.6
2018-Jul-12 22:53N 50°33' E 001°07'410.6
2018-Jul-12 22:30N 50°30' E 001°02'610.4
2018-Jul-12 21:53N 50°28' E 000°53'410.8
2018-Jul-12 21:31N 50°27' E 000°47'611.0
2018-Jul-12 20:55N 50°25' E 000°37'611.6
2018-Jul-12 20:23N 50°23' E 000°28'511.9
2018-Jul-12 20:00N 50°22' E 000°21'612.1
2018-Jul-12 19:31N 50°20' E 000°12'711.8
2018-Jul-12 18:57N 50°19' E 000°02'511.5
2018-Jul-12 18:30N 50°17' W 000°06'511.1
2018-Jul-12 18:01N 50°15' W 000°14'510.7
2018-Jul-12 17:31N 50°14' W 000°22'510.3
2018-Jul-12 17:00N 50°13' W 000°30'5 9.7
2018-Jul-12 16:30N 50°12' W 000°37'5 9.0
2018-Jul-12 15:55N 50°10' W 000°45'3 8.4
2018-Jul-12 15:30N 50°09' W 000°51'4 7.9
2018-Jul-12 15:00N 50°08' W 000°57'4 7.3
2018-Jul-12 14:30N 50°07' W 001°02'4 6.8
2018-Jul-12 13:59N 50°06' W 001°07'5 6.4
2018-Jul-12 13:08N 50°05' W 001°16'1 6.4
2018-Jul-12 13:00N 50°05' W 001°17'3 6.3
2018-Jul-12 12:31N 50°04' W 001°21'3 6.4
2018-Jul-12 12:00N 50°03' W 001°26'4 7.1
2018-Jul-12 11:31N 50°02' W 001°31'4 7.9
2018-Jul-12 11:01N 50°00' W 001°37'4 8.7
2018-Jul-12 10:30N 49°59' W 001°44'510.0
2018-Jul-12 10:01N 49°57' W 001°51'510.7
2018-Jul-12 09:30N 49°56' W 001°59'1212.6
2018-Jul-12 08:31N 49°53' W 002°18'115.3
2018-Jul-12 08:28N 49°53' W 002°19'714.4
2018-Jul-12 08:01N 49°52' W 002°29'714.7
2018-Jul-12 07:31N 49°50' W 002°40'714.7
2018-Jul-12 07:00N 49°48' W 002°51'1114.7
2018-Jul-12 06:14N 49°42' W 003°07'815.4
2018-Jul-12 05:44N 49°39' W 003°17'2515.4
2018-Jul-12 04:07N 49°26' W 003°50'215.5
2018-Jul-12 04:00N 49°25' W 003°53'1315.3
2018-Jul-12 03:10N 49°18' W 004°09'215.2
2018-Jul-12 03:00N 49°17' W 004°13'1215.2
2018-Jul-12 02:13N 49°11' W 004°29'315.0
2018-Jul-12 02:00N 49°10' W 004°33'814.9
2018-Jul-12 01:30N 49°06' W 004°43'714.7
2018-Jul-12 01:00N 49°03' W 004°52'714.6
2018-Jul-12 00:30N 48°59' W 005°02'714.2
2018-Jul-12 00:00N 48°55' W 005°11'714.3
2018-Jul-11 23:30N 48°52' W 005°21'713.5
2018-Jul-11 23:00N 48°48' W 005°30'713.2
2018-Jul-11 22:29N 48°44' W 005°38'612.9
2018-Jul-11 22:00N 48°38' W 005°42'713.9
2018-Jul-11 21:31N 48°32' W 005°47'  
Track history (hours):
 
Tides and Currents Weather Stations Pressure Air Temp Water Temp Dewpoint Dewpoint Depression Visibility Wind Speed Wind Dir Waves Ship Positions

Berit

Last reported at 2018-Jul-21 15:30 UTC. Time now 2018-Jul-21 15:34 UTC.
Position N 38°55' W 009°43'.

Length 135 m; draft 6.9 m.

Type: Cargo ship. MMSI: 209176832.

Date/timePositionNaut miles runAvg speedWind from/ knotsBaromVisibWave heightAir tempDewpointWater temp
2018-Jul-21 15:30N 38°55' W 009°43'714.8
2018-Jul-21 15:00N 38°48' W 009°42'714.6
2018-Jul-21 14:30N 38°41' W 009°42'713.9
2018-Jul-21 14:00N 38°35' W 009°36'714.4
2018-Jul-21 13:30N 38°30' W 009°30'714.5
2018-Jul-21 13:00N 38°24' W 009°24'713.5
2018-Jul-21 12:30N 38°21' W 009°17'815.9
2018-Jul-21 12:00N 38°23' W 009°07'816.7
2018-Jul-21 11:30N 38°27' W 008°58'510.7
2018-Jul-21 11:01N 38°31' W 008°53'0 0.4
2018-Jul-21 10:22N 38°31' W 008°52'0 0.0
2018-Jul-21 09:58N 38°31' W 008°52'0 0.0
2018-Jul-21 09:28N 38°31' W 008°52'0 0.0
2018-Jul-21 08:58N 38°31' W 008°52'0 0.0
2018-Jul-21 08:28N 38°31' W 008°52'0 0.0
2018-Jul-21 07:58N 38°31' W 008°52'0 0.0
2018-Jul-21 07:28N 38°31' W 008°52'0 0.0
2018-Jul-21 06:58N 38°31' W 008°52'1 2.8
2018-Jul-21 06:30N 38°31' W 008°54'612.1
2018-Jul-21 06:00N 38°26' W 008°59'3 6.4
2018-Jul-21 05:31N 38°23' W 009°01'4 7.8
2018-Jul-21 05:01N 38°20' W 009°01'4 8.9
2018-Jul-21 04:30N 38°15' W 008°60'4 7.9
2018-Jul-21 04:00N 38°11' W 008°59'4 7.3
2018-Jul-21 03:30N 38°08' W 008°59'5 9.3
2018-Jul-21 03:01N 38°03' W 008°58'917.1
2018-Jul-21 02:31N 37°55' W 008°54'2 4.3
2018-Jul-21 01:57N 37°56' W 008°51'0 0.0
2018-Jul-21 01:27N 37°56' W 008°51'0 0.0
2018-Jul-21 00:54N 37°56' W 008°51'0 0.0
2018-Jul-21 00:30N 37°56' W 008°51'0 0.0
2018-Jul-21 00:00N 37°56' W 008°51'0 0.0
2018-Jul-20 23:30N 37°56' W 008°51'0 0.0
2018-Jul-20 23:00N 37°56' W 008°51'0 0.0
2018-Jul-20 22:24N 37°56' W 008°51'0 0.0
2018-Jul-20 21:54N 37°56' W 008°51'0 0.0
2018-Jul-20 21:30N 37°56' W 008°51'0 0.0
2018-Jul-20 20:54N 37°56' W 008°51'0 0.0
2018-Jul-20 20:27N 37°56' W 008°51'0 0.0
2018-Jul-20 19:57N 37°56' W 008°51'0 0.0
2018-Jul-20 19:30N 37°56' W 008°51'1 1.9
2018-Jul-20 19:00N 37°55' W 008°50'3 6.3
2018-Jul-20 18:30N 37°53' W 008°53'612.6
2018-Jul-20 18:00N 37°50' W 009°00'1 1.9
2018-Jul-20 17:30N 37°51' W 009°01'1 2.3
2018-Jul-20 17:00N 37°52' W 009°01'1 2.2
2018-Jul-20 16:30N 37°53' W 009°01'3 5.5
2018-Jul-20 16:00N 37°51' W 008°59'510.5
2018-Jul-20 15:30N 37°49' W 008°53'1 1.9
2018-Jul-20 15:00N 37°50' W 008°52'1 1.7
2018-Jul-20 14:30N 37°50' W 008°53'1 1.6
2018-Jul-20 14:00N 37°51' W 008°54'1 1.5
2018-Jul-20 13:30N 37°51' W 008°55'1 1.4
2018-Jul-20 13:00N 37°51' W 008°56'1 1.4
2018-Jul-20 12:30N 37°52' W 008°56'1 1.4
2018-Jul-20 12:00N 37°52' W 008°57'2 4.2
2018-Jul-20 11:30N 37°52' W 008°55'0 0.9
2018-Jul-20 11:00N 37°52' W 008°55'1 1.1
2018-Jul-20 10:30N 37°53' W 008°55'1 2.1
2018-Jul-20 10:00N 37°53' W 008°54'1 2.5
2018-Jul-20 09:30N 37°54' W 008°54'2 3.8
2018-Jul-20 09:00N 37°56' W 008°55'3 5.3
2018-Jul-20 08:30N 37°58' W 008°57'5 9.4
2018-Jul-20 08:00N 38°01' W 009°01'917.4
2018-Jul-20 07:30N 38°08' W 009°08'917.5
2018-Jul-20 07:00N 38°15' W 009°16'918.0
2018-Jul-20 06:30N 38°21' W 009°23'918.4
2018-Jul-20 06:00N 38°28' W 009°31'918.3
2018-Jul-20 05:30N 38°35' W 009°39'917.2
2018-Jul-20 05:00N 38°43' W 009°43'918.1
2018-Jul-20 04:30N 38°52' W 009°44'918.0
2018-Jul-20 04:00N 39°01' W 009°44'918.2
2018-Jul-20 03:30N 39°10' W 009°44'918.2
2018-Jul-20 03:00N 39°19' W 009°44'918.3
2018-Jul-20 02:30N 39°28' W 009°43'1417.6
2018-Jul-20 01:43N 39°41' W 009°36'718.0
2018-Jul-20 01:18N 39°48' W 009°33'818.2
2018-Jul-20 00:51N 39°55' W 009°28'7318.0
2018-Jul-19 20:49N 41°02' W 008°49'517.6
2018-Jul-19 20:30N 41°06' W 008°45'510.8
2018-Jul-19 20:00N 41°11' W 008°42'1 1.8
2018-Jul-19 19:28N 41°12' W 008°41'0 0.0
2018-Jul-19 18:40N 41°12' W 008°41'0 0.0
2018-Jul-19 18:28N 41°12' W 008°41'0 0.0
2018-Jul-19 17:46N 41°12' W 008°41'0 0.0
2018-Jul-19 17:25N 41°12' W 008°41'0 0.0
2018-Jul-19 16:58N 41°12' W 008°41'0 0.0
2018-Jul-19 16:22N 41°12' W 008°41'0 0.0
2018-Jul-19 15:52N 41°12' W 008°41'0 0.0
2018-Jul-19 15:28N 41°12' W 008°41'0 0.0
2018-Jul-19 14:58N 41°12' W 008°41'0 0.0
2018-Jul-19 13:46N 41°12' W 008°41'0 0.0
2018-Jul-19 13:28N 41°12' W 008°41'0 0.0
2018-Jul-19 12:58N 41°12' W 008°41'0 0.0
2018-Jul-19 12:22N 41°12' W 008°41'0 0.0
2018-Jul-19 11:55N 41°12' W 008°41'0 0.0
2018-Jul-19 11:22N 41°12' W 008°41'0 0.0
2018-Jul-19 10:58N 41°12' W 008°41'0 0.0
2018-Jul-19 10:28N 41°12' W 008°41'0 0.0
2018-Jul-19 09:58N 41°12' W 008°41'0 0.0
2018-Jul-19 09:16N 41°12' W 008°41'0 0.0
2018-Jul-19 08:58N 41°12' W 008°41'0 0.0
2018-Jul-19 08:25N 41°12' W 008°41'0 0.0
2018-Jul-19 07:55N 41°12' W 008°41'0 0.0
2018-Jul-19 07:22N 41°12' W 008°41'0 0.0
2018-Jul-19 06:55N 41°12' W 008°41'0 0.0
2018-Jul-19 06:28N 41°12' W 008°41'0 0.0
2018-Jul-19 05:52N 41°12' W 008°41'0 0.0
2018-Jul-19 05:16N 41°12' W 008°41'0 0.0
2018-Jul-19 05:01N 41°12' W 008°41'0 0.0
2018-Jul-19 04:27N 41°12' W 008°41'0 0.0
2018-Jul-19 03:57N 41°12' W 008°41'0 0.0
2018-Jul-19 03:21N 41°12' W 008°41'0 0.0
2018-Jul-19 02:54N 41°12' W 008°41'0 0.0
2018-Jul-19 02:27N 41°12' W 008°41'0 0.0
2018-Jul-19 01:45N 41°12' W 008°41'0 0.0
2018-Jul-19 01:30N 41°12' W 008°41'0 0.0
2018-Jul-19 00:57N 41°12' W 008°41'0 0.0
2018-Jul-19 00:30N 41°12' W 008°41'0 0.0
2018-Jul-18 23:35N 41°12' W 008°41'0 0.2
2018-Jul-18 23:29N 41°12' W 008°41'1 2.1
2018-Jul-18 23:01N 41°11' W 008°42'3 5.3
2018-Jul-18 22:29N 41°09' W 008°44'2 4.6
2018-Jul-18 21:58N 41°11' W 008°46'4815.7
2018-Jul-18 18:54N 41°58' W 008°60'616.0
2018-Jul-18 18:30N 42°04' W 008°59'713.7
2018-Jul-18 18:00N 42°10' W 008°54'713.7
2018-Jul-18 17:31N 42°14' W 008°46'2 0.4
2018-Jul-18 11:21N 42°15' W 008°43'8 9.1
2018-Jul-18 10:30N 42°15' W 008°53'611.2
2018-Jul-18 10:00N 42°18' W 008°59'713.1
2018-Jul-18 09:26N 42°22' W 009°08'36112.9
2018-Jul-17 05:23N 48°05' W 006°27'14915.4
2018-Jul-16 19:42N 49°44' W 003°37'314.6
2018-Jul-16 19:30N 49°46' W 003°33'714.9
2018-Jul-16 19:00N 49°50' W 003°23'815.4
2018-Jul-16 18:30N 49°53' W 003°13'816.2
2018-Jul-16 18:01N 49°57' W 003°01'917.2
2018-Jul-16 17:30N 50°00' W 002°49'1018.5
2018-Jul-16 16:59N 50°03' W 002°35'919.2
2018-Jul-16 16:30N 50°06' W 002°21'1019.9
2018-Jul-16 16:00N 50°09' W 002°06'1120.2
2018-Jul-16 15:28N 50°12' W 001°50'1019.8
2018-Jul-16 14:58N 50°14' W 001°35'918.9
2018-Jul-16 14:30N 50°16' W 001°22'917.9
2018-Jul-16 14:00N 50°19' W 001°09'816.9
2018-Jul-16 13:30N 50°22' W 000°56'815.5
2018-Jul-16 13:00N 50°24' W 000°44'714.5
2018-Jul-16 12:30N 50°25' W 000°33'714.4
2018-Jul-16 12:00N 50°27' W 000°22'714.4
2018-Jul-16 11:30N 50°29' W 000°11'714.4
2018-Jul-16 11:00N 50°30' W 000°00'714.4
2018-Jul-16 10:31N 50°32' E 000°11'714.8
2018-Jul-16 10:01N 50°34' E 000°22'815.7
2018-Jul-16 09:30N 50°37' E 000°34'917.2
2018-Jul-16 09:01N 50°41' E 000°45'918.4
2018-Jul-16 08:30N 50°46' E 000°58'918.8
2018-Jul-16 08:01N 50°51' E 001°10'918.9
2018-Jul-16 07:31N 50°57' E 001°21'918.7
2018-Jul-16 07:00N 51°05' E 001°31'917.4
2018-Jul-16 06:30N 51°11' E 001°41'816.5
2018-Jul-16 06:00N 51°17' E 001°50'815.7
2018-Jul-16 05:30N 51°23' E 001°57'714.0
2018-Jul-16 05:00N 51°23' E 002°09'815.6
2018-Jul-16 04:30N 51°21' E 002°21'815.1
2018-Jul-16 04:00N 51°23' E 002°33'715.3
2018-Jul-16 03:30N 51°22' E 002°45'713.6
2018-Jul-16 03:00N 51°23' E 002°56'714.8
2018-Jul-16 02:30N 51°24' E 003°07'714.2
2018-Jul-16 02:01N 51°25' E 003°19'713.3
2018-Jul-16 01:31N 51°25' E 003°29'510.4
2018-Jul-16 01:00N 51°26' E 003°37'611.7
2018-Jul-16 00:31N 51°22' E 003°44'713.4
2018-Jul-16 00:00N 51°22' E 003°55'510.0
2018-Jul-15 23:31N 51°25' E 004°02'612.0
2018-Jul-15 23:01N 51°24' E 004°12'612.5
2018-Jul-15 22:30N 51°18' E 004°16'0 0.6
2018-Jul-15 21:59N 51°18' E 004°16'0 0.0
2018-Jul-15 21:29N 51°18' E 004°16'0 0.0
2018-Jul-15 20:59N 51°18' E 004°16'0 0.0
2018-Jul-15 20:29N 51°18' E 004°16'0 0.0
2018-Jul-15 19:59N 51°18' E 004°16'0 0.0
2018-Jul-15 19:29N 51°18' E 004°16'0 0.0
2018-Jul-15 18:59N 51°18' E 004°16'0 0.0
2018-Jul-15 18:29N 51°18' E 004°16'0 0.0
2018-Jul-15 17:59N 51°18' E 004°16'0 0.0
2018-Jul-15 17:29N 51°18' E 004°16'0 0.0
2018-Jul-15 16:56N 51°18' E 004°16'0 0.0
2018-Jul-15 16:29N 51°18' E 004°16'0 0.0
2018-Jul-15 15:59N 51°18' E 004°16'0 0.0
2018-Jul-15 15:29N 51°18' E 004°16'0 0.0
2018-Jul-15 14:59N 51°18' E 004°16'0 0.0
2018-Jul-15 14:29N 51°18' E 004°16'0 0.0
2018-Jul-15 13:59N 51°18' E 004°16'0 0.0
2018-Jul-15 13:29N 51°18' E 004°16'0 0.0
2018-Jul-15 12:59N 51°18' E 004°16'0 0.0
2018-Jul-15 12:29N 51°18' E 004°16'0 0.0
2018-Jul-15 11:59N 51°18' E 004°16'0 0.0
2018-Jul-15 11:29N 51°18' E 004°16'1 1.4
2018-Jul-15 11:00N 51°19' E 004°16'611.9
2018-Jul-15 10:30N 51°24' E 004°11'611.4
2018-Jul-15 10:01N 51°25' E 004°02'5 9.0
2018-Jul-15 09:30N 51°22' E 003°56'713.6
2018-Jul-15 09:00N 51°22' E 003°45'612.5
2018-Jul-15 08:30N 51°26' E 003°37'3 6.4
2018-Jul-15 08:01N 51°25' E 003°32'1 1.9
2018-Jul-15 07:30N 51°26' E 003°31'3 5.7
2018-Jul-15 07:00N 51°28' E 003°30'510.5
2018-Jul-15 06:30N 51°32' E 003°25'611.2
2018-Jul-15 06:00N 51°37' E 003°21'611.1
2018-Jul-15 05:30N 51°42' E 003°16'3 6.1
2018-Jul-15 05:00N 51°45' E 003°15'3 6.1
2018-Jul-15 04:30N 51°46' E 003°19'0 0.1
2018-Jul-15 04:00N 51°46' E 003°20'0 0.0
2018-Jul-15 03:31N 51°46' E 003°20'0 0.0
2018-Jul-15 03:00N 51°46' E 003°20'0 0.0
2018-Jul-15 02:30N 51°46' E 003°20'0 0.0
2018-Jul-15 02:00N 51°46' E 003°20'0 0.0
2018-Jul-15 01:30N 51°46' E 003°20'0 0.4
2018-Jul-15 01:00N 51°46' E 003°19'0 0.1
2018-Jul-15 00:30N 51°46' E 003°19'0 0.1
2018-Jul-15 00:00N 51°46' E 003°19'0 0.0
2018-Jul-14 23:30N 51°46' E 003°19'0 0.0
2018-Jul-14 23:00N 51°46' E 003°19'0 0.0
2018-Jul-14 22:30N 51°46' E 003°19'0 0.0
2018-Jul-14 22:00N 51°46' E 003°19'0 0.0
2018-Jul-14 21:30N 51°46' E 003°19'0 0.0
2018-Jul-14 21:00N 51°46' E 003°19'0 0.0
2018-Jul-14 20:30N 51°46' E 003°19'0 0.0
2018-Jul-14 20:00N 51°46' E 003°19'0 0.0
2018-Jul-14 19:30N 51°46' E 003°19'0 0.7
2018-Jul-14 19:00N 51°46' E 003°19'612.2
2018-Jul-14 18:30N 51°52' E 003°17'815.4
2018-Jul-14 18:00N 51°59' E 003°21'815.1
2018-Jul-14 17:30N 52°03' E 003°31'816.7
2018-Jul-14 17:00N 52°03' E 003°45'613.0
2018-Jul-14 16:30N 52°02' E 003°55'714.0
2018-Jul-14 16:00N 51°59' E 004°06'611.5
2018-Jul-14 15:31N 51°56' E 004°13'510.2
2018-Jul-14 15:00N 51°54' E 004°21'3 6.7
2018-Jul-14 14:30N 51°54' E 004°26'0 0.1
2018-Jul-14 13:29N 51°54' E 004°26'0 0.0
2018-Jul-14 12:59N 51°54' E 004°26'0 0.0
2018-Jul-14 12:29N 51°54' E 004°26'0 0.0
2018-Jul-14 11:59N 51°54' E 004°26'0 0.0
2018-Jul-14 11:29N 51°54' E 004°26'0 0.0
2018-Jul-14 10:59N 51°54' E 004°26'0 0.0
2018-Jul-14 10:29N 51°54' E 004°26'0 0.0
2018-Jul-14 09:59N 51°54' E 004°26'0 0.0
2018-Jul-14 09:28N 51°54' E 004°26'0 0.0
2018-Jul-14 08:58N 51°54' E 004°26'0 0.0
2018-Jul-14 08:28N 51°54' E 004°26'0 0.0
2018-Jul-14 07:58N 51°54' E 004°26'0 0.0
2018-Jul-14 07:28N 51°54' E 004°26'0 0.0
2018-Jul-14 06:58N 51°54' E 004°26'0 0.0
2018-Jul-14 06:28N 51°54' E 004°26'0 1.0
2018-Jul-14 06:00N 51°54' E 004°26'4 8.7
2018-Jul-14 05:30N 51°54' E 004°19'611.8
2018-Jul-14 05:00N 51°57' E 004°11'4 7.4
2018-Jul-14 04:30N 51°58' E 004°05'1 1.5
2018-Jul-14 03:59N 51°58' E 004°04'0 0.0
2018-Jul-14 03:25N 51°58' E 004°04'0 0.0
2018-Jul-14 02:58N 51°58' E 004°04'0 0.0
2018-Jul-14 02:28N 51°58' E 004°04'0 0.0
2018-Jul-14 01:58N 51°58' E 004°04'0 0.0
2018-Jul-14 01:28N 51°58' E 004°04'0 0.0
2018-Jul-14 00:58N 51°58' E 004°04'0 0.0
2018-Jul-14 00:28N 51°58' E 004°04'0 0.0
2018-Jul-13 23:59N 51°58' E 004°04'1 1.7
2018-Jul-13 23:30N 51°58' E 004°05'611.3
2018-Jul-13 23:01N 51°60' E 003°56'612.3
2018-Jul-13 22:30N 51°58' E 003°47'3 5.6
2018-Jul-13 21:59N 51°56' E 003°44'0 0.0
2018-Jul-13 21:22N 51°56' E 003°44'0 0.0
2018-Jul-13 20:55N 51°56' E 003°44'0 0.0
2018-Jul-13 20:25N 51°56' E 003°44'0 0.0
2018-Jul-13 19:58N 51°56' E 003°44'0 0.0
2018-Jul-13 19:28N 51°56' E 003°44'0 0.1
2018-Jul-13 18:58N 51°56' E 003°44'0 0.0
2018-Jul-13 18:22N 51°56' E 003°44'0 0.0
2018-Jul-13 17:55N 51°56' E 003°44'0 0.1
2018-Jul-13 17:28N 51°56' E 003°44'0 0.2
2018-Jul-13 16:58N 51°56' E 003°44'0 0.1
2018-Jul-13 16:28N 51°56' E 003°44'0 0.1
2018-Jul-13 15:58N 51°56' E 003°44'0 0.0
2018-Jul-13 15:28N 51°56' E 003°44'0 0.0
2018-Jul-13 14:58N 51°56' E 003°44'1 1.2
2018-Jul-13 14:00N 51°56' E 003°42'4 8.2
2018-Jul-13 13:30N 51°57' E 003°35'4 8.0
2018-Jul-13 13:00N 51°56' E 003°29'4 7.6
2018-Jul-13 12:30N 51°55' E 003°23'4 7.3
2018-Jul-13 12:00N 51°54' E 003°17'4 7.5
2018-Jul-13 11:30N 51°52' E 003°12'3 7.1
2018-Jul-13 11:01N 51°51' E 003°06'4 7.0
2018-Jul-13 10:30N 51°50' E 003°01'3 6.6
2018-Jul-13 10:00N 51°50' E 002°56'3 6.3
2018-Jul-13 09:29N 51°49' E 002°51'3 6.1
2018-Jul-13 09:00N 51°48' E 002°46'3 6.1
2018-Jul-13 08:30N 51°47' E 002°41'4 8.8
2018-Jul-13 08:00N 51°44' E 002°35'4 8.7
2018-Jul-13 07:30N 51°41' E 002°30'510.4
2018-Jul-13 07:00N 51°38' E 002°25'715.0
2018-Jul-13 06:31N 51°32' E 002°17'4 8.5
2018-Jul-13 06:01N 51°28' E 002°13'4 8.6
2018-Jul-13 05:30N 51°24' E 002°11'4 8.7
2018-Jul-13 05:00N 51°20' E 002°08'5 9.2
2018-Jul-13 04:30N 51°16' E 002°06'4 8.4
2018-Jul-13 04:01N 51°12' E 002°02'5 9.5
2018-Jul-13 03:31N 51°10' E 001°55'5 9.7
2018-Jul-13 03:01N 51°08' E 001°49'510.2
2018-Jul-13 02:30N 51°04' E 001°43'510.5
2018-Jul-13 02:00N 51°00' E 001°37'610.9
2018-Jul-13 01:30N 50°56' E 001°31'511.0
2018-Jul-13 01:01N 50°51' E 001°28'611.2
2018-Jul-13 00:31N 50°46' E 001°25'511.0
2018-Jul-13 00:01N 50°42' E 001°20'510.7
2018-Jul-12 23:31N 50°37' E 001°15'710.6
2018-Jul-12 22:53N 50°33' E 001°07'410.6
2018-Jul-12 22:30N 50°30' E 001°02'610.4
2018-Jul-12 21:53N 50°28' E 000°53'410.8
2018-Jul-12 21:31N 50°27' E 000°47'611.0
2018-Jul-12 20:55N 50°25' E 000°37'611.6
2018-Jul-12 20:23N 50°23' E 000°28'511.9
2018-Jul-12 20:00N 50°22' E 000°21'612.1
2018-Jul-12 19:31N 50°20' E 000°12'711.8
2018-Jul-12 18:57N 50°19' E 000°02'511.5
2018-Jul-12 18:30N 50°17' W 000°06'511.1
2018-Jul-12 18:01N 50°15' W 000°14'510.7
2018-Jul-12 17:31N 50°14' W 000°22'510.3
2018-Jul-12 17:00N 50°13' W 000°30'5 9.7
2018-Jul-12 16:30N 50°12' W 000°37'5 9.0
2018-Jul-12 15:55N 50°10' W 000°45'3 8.4
2018-Jul-12 15:30N 50°09' W 000°51'4 7.9
2018-Jul-12 15:00N 50°08' W 000°57'4 7.3
2018-Jul-12 14:30N 50°07' W 001°02'4 6.8
2018-Jul-12 13:59N 50°06' W 001°07'5 6.4
2018-Jul-12 13:08N 50°05' W 001°16'1 6.4
2018-Jul-12 13:00N 50°05' W 001°17'3 6.3
2018-Jul-12 12:31N 50°04' W 001°21'3 6.4
2018-Jul-12 12:00N 50°03' W 001°26'4 7.1
2018-Jul-12 11:31N 50°02' W 001°31'4 7.9
2018-Jul-12 11:01N 50°00' W 001°37'4 8.7
2018-Jul-12 10:30N 49°59' W 001°44'510.0
2018-Jul-12 10:01N 49°57' W 001°51'510.7
2018-Jul-12 09:30N 49°56' W 001°59'1212.6
2018-Jul-12 08:31N 49°53' W 002°18'115.3
2018-Jul-12 08:28N 49°53' W 002°19'714.4
2018-Jul-12 08:01N 49°52' W 002°29'714.7
2018-Jul-12 07:31N 49°50' W 002°40'714.7
2018-Jul-12 07:00N 49°48' W 002°51'1114.7
2018-Jul-12 06:14N 49°42' W 003°07'815.4
2018-Jul-12 05:44N 49°39' W 003°17'2515.4
2018-Jul-12 04:07N 49°26' W 003°50'215.5
2018-Jul-12 04:00N 49°25' W 003°53'1315.3
2018-Jul-12 03:10N 49°18' W 004°09'215.2
2018-Jul-12 03:00N 49°17' W 004°13'1215.2
2018-Jul-12 02:13N 49°11' W 004°29'315.0
2018-Jul-12 02:00N 49°10' W 004°33'814.9
2018-Jul-12 01:30N 49°06' W 004°43'714.7
2018-Jul-12 01:00N 49°03' W 004°52'714.6
2018-Jul-12 00:30N 48°59' W 005°02'714.2
2018-Jul-12 00:00N 48°55' W 005°11'714.3
2018-Jul-11 23:30N 48°52' W 005°21'713.5
2018-Jul-11 23:00N 48°48' W 005°30'713.2
2018-Jul-11 22:29N 48°44' W 005°38'612.9
2018-Jul-11 22:00N 48°38' W 005°42'713.9
2018-Jul-11 21:31N 48°32' W 005°47'  

Dump ship's entire track history